createdAt,value
2023-04-09T00:01:18.949Z,10.06
2023-04-09T00:03:45.494Z,10.00
2023-04-09T00:06:12.706Z,9.93
2023-04-09T00:08:39.050Z,9.88
2023-04-09T00:11:05.794Z,9.81
2023-04-09T00:13:39.024Z,9.78
2023-04-09T00:16:06.367Z,9.74
2023-04-09T00:18:32.807Z,9.70
2023-04-09T00:20:59.179Z,9.65
2023-04-09T00:23:25.525Z,9.62
2023-04-09T00:25:51.939Z,9.57
2023-04-09T00:28:18.277Z,9.57
2023-04-09T00:30:44.639Z,9.54
2023-04-09T00:33:11.279Z,9.51
2023-04-09T00:35:37.656Z,9.50
2023-04-09T00:38:04.087Z,9.47
2023-04-09T00:40:30.827Z,9.43
2023-04-09T00:42:57.170Z,9.41
2023-04-09T00:45:23.664Z,9.38
2023-04-09T00:47:50.457Z,9.34
2023-04-09T00:50:16.971Z,9.30
2023-04-09T00:52:43.615Z,9.26
2023-04-09T00:55:10.474Z,9.20
2023-04-09T00:57:37.388Z,9.15
2023-04-09T01:00:04.670Z,9.11
2023-04-09T01:02:31.313Z,9.06
2023-04-09T01:04:58.156Z,9.00
2023-04-09T01:07:48.657Z,8.96
2023-04-09T01:10:28.172Z,8.90
2023-04-09T01:13:03.166Z,8.86
2023-04-09T01:15:37.714Z,8.81
2023-04-09T01:18:12.075Z,8.76
2023-04-09T01:20:40.592Z,8.71
2023-04-09T01:23:09.919Z,8.68
2023-04-09T01:26:04.289Z,8.64
2023-04-09T01:28:36.824Z,8.62
2023-04-09T01:31:09.215Z,8.57
2023-04-09T01:33:37.675Z,8.54
2023-04-09T01:36:05.171Z,8.51
2023-04-09T01:38:36.378Z,8.49
2023-04-09T01:41:04.026Z,8.47
2023-04-09T01:43:31.940Z,8.45
2023-04-09T01:46:00.840Z,8.44
2023-04-09T01:48:27.654Z,8.42
2023-04-09T01:50:54.184Z,8.39
2023-04-09T01:53:21.762Z,8.38
2023-04-09T01:55:48.091Z,8.35
2023-04-09T01:58:14.461Z,8.33
2023-04-09T02:00:46.762Z,8.31
2023-04-09T02:03:22.296Z,8.29
2023-04-09T02:06:04.958Z,8.29
2023-04-09T02:08:34.765Z,8.27
2023-04-09T02:11:04.902Z,8.24
2023-04-09T02:13:34.585Z,8.22
2023-04-09T02:16:01.986Z,8.18
2023-04-09T02:18:30.156Z,8.15
2023-04-09T02:20:57.707Z,8.13
2023-04-09T02:23:24.618Z,8.11
2023-04-09T02:25:52.534Z,8.09
2023-04-09T02:28:19.095Z,8.06
2023-04-09T02:30:45.513Z,8.04
2023-04-09T02:33:11.908Z,8.03
2023-04-09T02:35:38.317Z,8.01
2023-04-09T02:38:04.899Z,7.98
2023-04-09T02:40:31.291Z,7.95
2023-04-09T02:42:57.817Z,7.94
2023-04-09T02:45:24.136Z,7.91
2023-04-09T02:47:50.600Z,7.90
2023-04-09T02:50:17.130Z,7.88
2023-04-09T02:52:46.408Z,7.85
2023-04-09T02:55:13.348Z,7.83
2023-04-09T02:57:40.768Z,7.81
2023-04-09T03:00:07.952Z,7.78
2023-04-09T03:02:34.539Z,7.76
2023-04-09T03:05:00.947Z,7.75
2023-04-09T03:07:27.405Z,7.72
2023-04-09T03:09:53.747Z,7.70
2023-04-09T03:12:20.116Z,7.69
2023-04-09T03:14:46.496Z,7.67
2023-04-09T03:17:12.796Z,7.65
2023-04-09T03:19:39.101Z,7.65
2023-04-09T03:22:05.727Z,7.63
2023-04-09T03:24:33.042Z,7.62
2023-04-09T03:26:59.377Z,7.59
2023-04-09T03:29:25.939Z,7.58
2023-04-09T03:31:52.394Z,7.56
2023-04-09T03:34:18.811Z,7.54
2023-04-09T03:36:45.367Z,7.51
2023-04-09T03:39:11.750Z,7.49
2023-04-09T03:41:38.203Z,7.47
2023-04-09T03:44:04.670Z,7.45
2023-04-09T03:46:31.180Z,7.43
2023-04-09T03:48:57.553Z,7.41
2023-04-09T03:51:23.902Z,7.41
2023-04-09T03:53:50.386Z,7.38
2023-04-09T03:56:16.698Z,7.36
2023-04-09T03:58:43.026Z,7.35
2023-04-09T04:01:09.431Z,7.34
2023-04-09T04:03:36.010Z,7.31
2023-04-09T04:06:03.446Z,7.29
2023-04-09T04:08:30.071Z,7.27
2023-04-09T04:10:56.539Z,7.26
2023-04-09T04:13:22.983Z,7.22
2023-04-09T04:15:49.315Z,7.21
2023-04-09T04:18:15.671Z,7.20
2023-04-09T04:20:42.013Z,7.18
2023-04-09T04:23:08.384Z,7.17
2023-04-09T04:25:34.741Z,7.15
2023-04-09T04:28:01.057Z,7.14
2023-04-09T04:30:27.424Z,7.13
2023-04-09T04:32:53.884Z,7.12
2023-04-09T04:35:21.613Z,7.10
2023-04-09T04:37:50.935Z,7.10
2023-04-09T04:40:17.664Z,7.08
2023-04-09T04:42:44.262Z,7.04
2023-04-09T04:45:10.783Z,7.04
2023-04-09T04:47:37.148Z,7.03
2023-04-09T04:50:03.771Z,7.01
2023-04-09T04:52:30.169Z,7.00
2023-04-09T04:54:56.547Z,6.99
2023-04-09T04:57:22.950Z,6.98
2023-04-09T04:59:49.273Z,6.97
2023-04-09T05:02:15.800Z,6.97
2023-04-09T05:04:42.408Z,6.96
2023-04-09T05:07:08.729Z,6.94
2023-04-09T05:09:35.387Z,6.94
2023-04-09T05:12:02.488Z,6.94
2023-04-09T05:14:28.907Z,6.92
2023-04-09T05:16:55.292Z,6.93
2023-04-09T05:19:21.704Z,6.94
2023-04-09T05:21:48.022Z,6.94
2023-04-09T05:24:14.446Z,6.95
2023-04-09T05:26:40.927Z,6.96
2023-04-09T05:29:07.273Z,6.97
2023-04-09T05:31:35.183Z,6.98
2023-04-09T05:34:01.571Z,7.00
2023-04-09T05:36:27.895Z,7.02
2023-04-09T05:38:54.600Z,7.05
2023-04-09T05:41:21.242Z,7.09
2023-04-09T05:43:47.594Z,7.12
2023-04-09T05:46:14.185Z,7.15
2023-04-09T05:48:41.199Z,7.18
2023-04-09T05:51:07.877Z,7.21
2023-04-09T05:53:34.229Z,7.25
2023-04-09T05:56:00.807Z,7.29
2023-04-09T05:58:29.544Z,7.33
2023-04-09T06:00:56.103Z,7.38
2023-04-09T06:03:22.499Z,7.40
2023-04-09T06:05:49.122Z,7.47
2023-04-09T06:08:15.668Z,7.53
2023-04-09T06:10:42.172Z,7.58
2023-04-09T06:13:10.180Z,7.64
2023-04-09T06:15:38.707Z,7.70
2023-04-09T06:18:05.090Z,7.75
2023-04-09T06:20:31.535Z,7.82
2023-04-09T06:22:57.917Z,7.88
2023-04-09T06:25:24.383Z,7.96
2023-04-09T06:27:50.910Z,8.03
2023-04-09T06:30:17.249Z,8.11
2023-04-09T06:32:53.822Z,8.18
2023-04-09T06:35:21.569Z,8.29
2023-04-09T06:37:47.879Z,8.39
2023-04-09T06:40:14.721Z,8.48
2023-04-09T06:42:41.174Z,8.57
2023-04-09T06:45:08.609Z,8.67
2023-04-09T06:47:38.012Z,8.77
2023-04-09T06:50:05.001Z,8.88
2023-04-09T06:52:31.465Z,8.99
2023-04-09T06:54:57.842Z,9.08
2023-04-09T06:57:24.207Z,9.19
2023-04-09T06:59:50.599Z,9.29
2023-04-09T07:02:17.284Z,9.40
2023-04-09T07:04:43.858Z,9.49
2023-04-09T07:07:10.571Z,9.59
2023-04-09T07:09:36.981Z,9.70
2023-04-09T07:12:03.494Z,9.80
2023-04-09T07:14:29.958Z,9.91
2023-04-09T07:16:56.288Z,10.02
2023-04-09T07:19:22.804Z,10.12
2023-04-09T07:21:49.224Z,10.22
2023-04-09T07:24:15.792Z,10.32
2023-04-09T07:26:42.660Z,10.41
2023-04-09T07:29:09.160Z,10.51
2023-04-09T07:31:36.201Z,10.61
2023-04-09T07:34:02.675Z,10.70
2023-04-09T07:36:29.156Z,10.81
2023-04-09T07:38:55.618Z,10.89
2023-04-09T07:41:22.159Z,10.96
2023-04-09T07:43:48.678Z,11.06
2023-04-09T07:46:24.445Z,11.15
2023-04-09T07:48:51.437Z,11.26
2023-04-09T07:51:19.393Z,11.33
2023-04-09T07:53:45.816Z,11.41
2023-04-09T07:56:12.347Z,11.49
2023-04-09T07:58:38.693Z,11.57
2023-04-09T08:01:05.218Z,11.64
2023-04-09T08:03:32.156Z,11.71
2023-04-09T08:05:58.704Z,11.79
2023-04-09T08:08:25.348Z,11.86
2023-04-09T08:10:52.085Z,11.94
2023-04-09T08:13:18.530Z,12.01
2023-04-09T08:15:45.046Z,12.09
2023-04-09T08:18:11.482Z,12.18
2023-04-09T08:20:44.823Z,12.25
2023-04-09T08:23:12.030Z,12.36
2023-04-09T08:25:38.409Z,12.43
2023-04-09T08:28:05.554Z,12.49
2023-04-09T08:30:34.089Z,12.59
2023-04-09T08:33:01.538Z,12.66
2023-04-09T08:35:29.913Z,12.73
2023-04-09T08:37:56.884Z,12.82
2023-04-09T08:40:23.519Z,12.91
2023-04-09T08:42:55.800Z,13.01
2023-04-09T08:45:22.577Z,13.07
2023-04-09T08:47:51.322Z,13.15
2023-04-09T08:50:17.841Z,13.23
2023-04-09T08:52:48.003Z,13.30
2023-04-09T08:55:14.604Z,13.37
2023-04-09T08:57:41.993Z,13.44
2023-04-09T09:00:09.294Z,13.49
2023-04-09T09:02:36.356Z,13.57
2023-04-09T09:05:03.016Z,13.64
2023-04-09T09:07:30.254Z,13.71
2023-04-09T09:09:59.031Z,13.76
2023-04-09T09:12:34.803Z,13.85
2023-04-09T09:15:01.802Z,13.90
2023-04-09T09:17:28.418Z,13.96
2023-04-09T09:19:55.121Z,14.02
2023-04-09T09:22:21.654Z,14.10
2023-04-09T09:24:50.692Z,14.16
2023-04-09T09:27:37.151Z,14.24
2023-04-09T09:30:04.731Z,14.35
2023-04-09T09:32:32.202Z,14.41
2023-04-09T09:35:08.063Z,14.49
2023-04-09T09:37:34.573Z,14.54
2023-04-09T09:40:01.252Z,14.60
2023-04-09T09:42:28.000Z,14.66
2023-04-09T09:44:55.247Z,14.71
2023-04-09T09:47:22.819Z,14.77
2023-04-09T09:49:50.340Z,14.84
2023-04-09T09:52:24.586Z,14.92
2023-04-09T09:54:53.326Z,14.99
2023-04-09T09:57:22.226Z,15.05
2023-04-09T09:59:55.990Z,15.13
2023-04-09T10:02:30.910Z,15.20
2023-04-09T10:05:00.905Z,15.24
2023-04-09T10:07:28.497Z,15.29
2023-04-09T10:09:56.846Z,15.35
2023-04-09T10:12:25.084Z,15.41
2023-04-09T10:14:53.043Z,15.47
2023-04-09T10:17:20.036Z,15.51
2023-04-09T10:20:02.056Z,15.58
2023-04-09T10:22:32.042Z,15.65
2023-04-09T10:24:59.805Z,15.72
2023-04-09T10:27:29.911Z,15.78
2023-04-09T10:29:56.488Z,15.85
2023-04-09T10:32:26.695Z,15.90
2023-04-09T10:34:57.256Z,15.97
2023-04-09T10:37:25.827Z,16.06
2023-04-09T10:39:52.827Z,16.15
2023-04-09T10:42:24.841Z,16.23
2023-04-09T10:45:04.535Z,16.34
2023-04-09T10:47:36.301Z,16.42
2023-04-09T10:50:21.152Z,16.53
2023-04-09T10:52:52.806Z,16.65
2023-04-09T10:55:50.331Z,16.82
2023-04-09T10:58:17.341Z,16.95
2023-04-09T11:00:48.640Z,17.10
2023-04-09T11:03:24.356Z,17.24
2023-04-09T11:06:06.197Z,17.40
2023-04-09T11:08:33.696Z,17.50
2023-04-09T11:11:01.925Z,17.58
2023-04-09T11:13:30.212Z,17.62
2023-04-09T11:15:57.800Z,17.67
2023-04-09T11:18:26.734Z,17.73
2023-04-09T11:20:57.494Z,17.82
2023-04-09T11:23:24.996Z,17.88
2023-04-09T11:25:53.008Z,17.97
2023-04-09T11:28:20.563Z,18.07
2023-04-09T11:30:47.388Z,18.16
2023-04-09T11:33:14.342Z,18.26
2023-04-09T11:35:40.799Z,18.36
2023-04-09T11:38:08.938Z,18.45
2023-04-09T11:40:36.189Z,18.54
2023-04-09T11:43:03.167Z,18.63
2023-04-09T11:45:32.034Z,18.73
2023-04-09T11:47:59.260Z,18.79
2023-04-09T11:50:26.246Z,18.86
2023-04-09T11:52:52.705Z,18.92
2023-04-09T11:55:27.851Z,18.97
2023-04-09T11:57:57.825Z,18.99
2023-04-09T12:00:24.715Z,19.00
2023-04-09T12:03:02.864Z,19.04
2023-04-09T12:05:31.976Z,19.05
2023-04-09T12:08:02.201Z,19.08
2023-04-09T12:10:29.988Z,19.12
2023-04-09T12:13:06.647Z,19.17
2023-04-09T12:15:35.005Z,19.19
2023-04-09T12:18:02.138Z,19.21
2023-04-09T12:20:31.586Z,19.24
2023-04-09T12:23:00.294Z,19.27
2023-04-09T12:25:27.726Z,19.28
2023-04-09T12:27:56.457Z,19.27
2023-04-09T12:30:23.672Z,19.25
2023-04-09T12:32:50.630Z,19.24
2023-04-09T12:35:17.038Z,19.22
2023-04-09T12:37:44.280Z,19.21
2023-04-09T12:40:13.903Z,19.19
2023-04-09T12:42:41.676Z,19.20
2023-04-09T12:45:10.259Z,19.22
2023-04-09T12:47:37.061Z,19.24
2023-04-09T12:50:04.640Z,19.29
2023-04-09T12:52:31.178Z,19.34
2023-04-09T12:54:57.821Z,19.37
2023-04-09T12:57:24.456Z,19.41
2023-04-09T12:59:50.917Z,19.41
2023-04-09T13:02:17.608Z,19.42
2023-04-09T13:04:44.579Z,19.43
2023-04-09T13:07:12.899Z,19.46
2023-04-09T13:09:39.324Z,19.49
2023-04-09T13:12:06.090Z,19.54
2023-04-09T13:14:32.582Z,19.58
2023-04-09T13:16:59.257Z,19.62
2023-04-09T13:19:25.982Z,19.64
2023-04-09T13:21:52.694Z,19.64
2023-04-09T13:24:19.131Z,19.64
2023-04-09T13:26:45.575Z,19.65
2023-04-09T13:29:12.113Z,19.66
2023-04-09T13:31:38.508Z,19.68
2023-04-09T13:34:06.423Z,19.69
2023-04-09T13:36:33.074Z,19.69
2023-04-09T13:39:04.335Z,19.67
2023-04-09T13:41:32.677Z,19.63
2023-04-09T13:44:00.201Z,19.60
2023-04-09T13:46:27.823Z,19.55
2023-04-09T13:48:55.203Z,19.51
2023-04-09T13:51:27.141Z,19.48
2023-04-09T13:53:53.537Z,19.44
2023-04-09T13:56:20.556Z,19.43
2023-04-09T13:58:47.441Z,19.42
2023-04-09T14:01:14.510Z,19.42
2023-04-09T14:03:40.887Z,19.43
2023-04-09T14:06:10.543Z,19.44
2023-04-09T14:08:37.186Z,19.48
2023-04-09T14:11:03.743Z,19.50
2023-04-09T14:13:30.404Z,19.50
2023-04-09T14:15:59.159Z,19.52
2023-04-09T14:18:26.795Z,19.53
2023-04-09T14:20:53.222Z,19.53
2023-04-09T14:23:19.707Z,19.55
2023-04-09T14:25:46.045Z,19.56
2023-04-09T14:28:12.462Z,19.59
2023-04-09T14:30:39.013Z,19.61
2023-04-09T14:33:05.413Z,19.65
2023-04-09T14:35:31.896Z,19.67
2023-04-09T14:37:58.412Z,19.71
2023-04-09T14:40:24.827Z,19.77
2023-04-09T14:42:51.252Z,19.80
2023-04-09T14:45:17.934Z,19.83
2023-04-09T14:47:44.343Z,19.84
2023-04-09T14:50:12.870Z,19.83
2023-04-09T14:52:39.470Z,19.84
2023-04-09T14:55:11.925Z,19.85
2023-04-09T14:57:42.062Z,19.89
2023-04-09T15:00:10.356Z,19.91
2023-04-09T15:02:37.156Z,19.93
2023-04-09T15:05:04.561Z,19.96
2023-04-09T15:07:31.502Z,19.98
2023-04-09T15:09:59.798Z,19.98
2023-04-09T15:12:27.834Z,19.98
2023-04-09T15:14:56.524Z,19.95
2023-04-09T15:17:23.693Z,19.94
2023-04-09T15:19:50.721Z,19.92
2023-04-09T15:22:17.136Z,19.91
2023-04-09T15:24:43.684Z,19.88
2023-04-09T15:27:10.304Z,19.85
2023-04-09T15:29:36.755Z,19.81
2023-04-09T15:32:03.347Z,19.75
2023-04-09T15:34:29.909Z,19.70
2023-04-09T15:36:57.182Z,19.64
2023-04-09T15:39:24.741Z,19.61
2023-04-09T15:41:51.181Z,19.58
2023-04-09T15:44:17.601Z,19.55
2023-04-09T15:46:44.129Z,19.51
2023-04-09T15:49:10.793Z,19.47
2023-04-09T15:51:37.228Z,19.43
2023-04-09T15:54:03.733Z,19.39
2023-04-09T15:56:30.118Z,19.36
2023-04-09T15:58:56.507Z,19.34
2023-04-09T16:01:22.974Z,19.30
2023-04-09T16:03:52.133Z,19.27
2023-04-09T16:06:18.728Z,19.23
2023-04-09T16:08:45.432Z,19.22
2023-04-09T16:11:11.855Z,19.19
2023-04-09T16:13:38.283Z,19.18
2023-04-09T16:16:06.732Z,19.15
2023-04-09T16:18:34.512Z,19.14
2023-04-09T16:21:01.091Z,19.12
2023-04-09T16:23:29.736Z,19.11
2023-04-09T16:25:57.022Z,19.07
2023-04-09T16:28:23.452Z,19.02
2023-04-09T16:30:50.518Z,18.98
2023-04-09T16:33:16.859Z,18.93
2023-04-09T16:35:43.621Z,18.86
2023-04-09T16:38:10.440Z,18.82
2023-04-09T16:40:37.112Z,18.78
2023-04-09T16:43:03.784Z,18.78
2023-04-09T16:45:30.424Z,18.77
2023-04-09T16:47:56.988Z,18.79
2023-04-09T16:50:24.622Z,18.80
2023-04-09T16:52:51.267Z,18.79
2023-04-09T16:55:17.712Z,18.77
2023-04-09T16:57:44.436Z,18.75
2023-04-09T17:00:12.787Z,18.75
2023-04-09T17:02:39.563Z,18.77
2023-04-09T17:05:06.525Z,18.82
2023-04-09T17:07:33.158Z,18.90
2023-04-09T17:09:59.543Z,18.96
2023-04-09T17:12:26.859Z,19.04
2023-04-09T17:14:53.641Z,19.10
2023-04-09T17:17:20.213Z,19.14
2023-04-09T17:19:46.874Z,19.15
2023-04-09T17:22:13.917Z,19.18
2023-04-09T17:24:40.358Z,19.18
2023-04-09T17:27:07.442Z,19.19
2023-04-09T17:29:34.265Z,19.18
2023-04-09T17:32:00.668Z,19.15
2023-04-09T17:34:27.280Z,19.09
2023-04-09T17:36:57.392Z,19.02
2023-04-09T17:39:27.052Z,18.89
2023-04-09T17:41:56.255Z,18.75
2023-04-09T17:44:24.835Z,18.62
2023-04-09T17:46:51.896Z,18.48
2023-04-09T17:49:18.507Z,18.33
2023-04-09T17:51:44.986Z,18.19
2023-04-09T17:54:11.728Z,18.04
2023-04-09T17:56:39.051Z,17.87
2023-04-09T17:59:06.443Z,17.68
2023-04-09T18:01:33.061Z,17.51
2023-04-09T18:04:01.065Z,17.33
2023-04-09T18:06:28.049Z,17.17
2023-04-09T18:08:54.703Z,17.00
2023-04-09T18:11:21.152Z,16.85
2023-04-09T18:13:47.514Z,16.70
2023-04-09T18:16:14.215Z,16.55
2023-04-09T18:18:41.164Z,16.40
2023-04-09T18:21:07.608Z,16.25
2023-04-09T18:23:34.349Z,16.11
2023-04-09T18:26:01.009Z,15.98
2023-04-09T18:28:28.018Z,15.87
2023-04-09T18:30:54.706Z,15.75
2023-04-09T18:33:21.527Z,15.63
2023-04-09T18:35:48.123Z,15.52
2023-04-09T18:38:14.664Z,15.41
2023-04-09T18:40:42.737Z,15.29
2023-04-09T18:43:12.282Z,15.20
2023-04-09T18:45:42.520Z,15.11
2023-04-09T18:48:09.028Z,15.02
2023-04-09T18:50:35.677Z,14.95
2023-04-09T18:53:03.579Z,14.87
2023-04-09T18:55:30.375Z,14.80
2023-04-09T18:57:57.453Z,14.73
2023-04-09T19:00:24.328Z,14.66
2023-04-09T19:02:51.152Z,14.59
2023-04-09T19:05:18.034Z,14.53
2023-04-09T19:07:44.474Z,14.45
2023-04-09T19:10:13.182Z,14.38
2023-04-09T19:12:39.810Z,14.33
2023-04-09T19:15:06.766Z,14.27
2023-04-09T19:17:33.943Z,14.21
2023-04-09T19:20:01.051Z,14.15
2023-04-09T19:22:28.054Z,14.11
2023-04-09T19:24:54.532Z,14.05
2023-04-09T19:27:20.979Z,14.00
2023-04-09T19:29:47.290Z,13.95
2023-04-09T19:32:13.800Z,13.91
2023-04-09T19:34:40.302Z,13.84
2023-04-09T19:37:07.364Z,13.80
2023-04-09T19:39:33.750Z,13.74
2023-04-09T19:42:00.171Z,13.69
2023-04-09T19:44:26.648Z,13.65
2023-04-09T19:46:53.127Z,13.58
2023-04-09T19:49:19.509Z,13.54
2023-04-09T19:51:45.806Z,13.49
2023-04-09T19:54:12.155Z,13.46
2023-04-09T19:56:38.493Z,13.41
2023-04-09T19:59:04.862Z,13.38
2023-04-09T20:01:31.435Z,13.34
2023-04-09T20:03:57.978Z,13.31
2023-04-09T20:06:24.705Z,13.27
2023-04-09T20:08:51.324Z,13.26
2023-04-09T20:11:18.610Z,13.22
2023-04-09T20:13:47.060Z,13.17
2023-04-09T20:16:16.465Z,13.16
2023-04-09T20:18:42.836Z,13.12
2023-04-09T20:21:09.305Z,13.09
2023-04-09T20:23:35.666Z,13.06
2023-04-09T20:26:02.626Z,13.04
2023-04-09T20:28:29.707Z,13.00
2023-04-09T20:30:56.523Z,12.98
2023-04-09T20:33:22.885Z,12.96
2023-04-09T20:35:50.373Z,12.93
2023-04-09T20:38:20.360Z,12.91
2023-04-09T20:40:46.866Z,12.88
2023-04-09T20:43:13.512Z,12.86
2023-04-09T20:45:39.937Z,12.83
2023-04-09T20:48:06.599Z,12.80
2023-04-09T20:50:33.038Z,12.78
2023-04-09T20:52:59.368Z,12.74
2023-04-09T20:55:26.125Z,12.71
2023-04-09T20:57:55.510Z,12.68
2023-04-09T21:00:22.567Z,12.65
2023-04-09T21:02:49.145Z,12.63
2023-04-09T21:05:22.813Z,12.60
2023-04-09T21:07:50.669Z,12.58
2023-04-09T21:10:17.185Z,12.54
2023-04-09T21:12:43.602Z,12.51
2023-04-09T21:15:10.992Z,12.48
2023-04-09T21:17:37.427Z,12.44
2023-04-09T21:20:04.501Z,12.41
2023-04-09T21:22:31.291Z,12.39
2023-04-09T21:24:57.817Z,12.36
2023-04-09T21:27:24.214Z,12.32
2023-04-09T21:29:50.712Z,12.28
2023-04-09T21:32:17.584Z,12.26
2023-04-09T21:34:43.938Z,12.24
2023-04-09T21:37:10.447Z,12.22
2023-04-09T21:39:36.970Z,12.18
2023-04-09T21:42:03.308Z,12.15
2023-04-09T21:44:29.783Z,12.14
2023-04-09T21:46:56.337Z,12.11
2023-04-09T21:49:22.854Z,12.08
2023-04-09T21:51:49.261Z,12.05
2023-04-09T21:54:15.800Z,12.02
2023-04-09T21:56:42.168Z,12.01
2023-04-09T21:59:08.533Z,11.99
2023-04-09T22:01:35.333Z,11.96
2023-04-09T22:04:02.366Z,11.94
2023-04-09T22:06:29.488Z,11.92
2023-04-09T22:08:57.809Z,11.91
2023-04-09T22:11:27.557Z,11.88
2023-04-09T22:13:57.919Z,11.86
2023-04-09T22:16:25.880Z,11.83
2023-04-09T22:18:53.923Z,11.80
2023-04-09T22:21:20.699Z,11.77
2023-04-09T22:23:47.019Z,11.74
2023-04-09T22:26:13.540Z,11.71
2023-04-09T22:28:40.107Z,11.67
2023-04-09T22:31:06.667Z,11.63
2023-04-09T22:33:33.001Z,11.60
2023-04-09T22:35:59.801Z,11.56
2023-04-09T22:38:26.444Z,11.52
2023-04-09T22:40:52.942Z,11.48
2023-04-09T22:43:19.634Z,11.43
2023-04-09T22:45:54.059Z,11.41
2023-04-09T22:48:21.779Z,11.37
2023-04-09T22:50:49.346Z,11.34
2023-04-09T22:53:18.788Z,11.31
2023-04-09T22:55:47.367Z,11.27
2023-04-09T22:58:13.719Z,11.25
2023-04-09T23:00:40.486Z,11.23
2023-04-09T23:03:07.037Z,11.22
2023-04-09T23:05:33.701Z,11.19
2023-04-09T23:08:00.210Z,11.18
2023-04-09T23:10:26.713Z,11.16
2023-04-09T23:12:53.166Z,11.14
2023-04-09T23:15:19.657Z,11.13
2023-04-09T23:17:46.121Z,11.12
2023-04-09T23:20:14.867Z,11.11
2023-04-09T23:22:41.917Z,11.11
2023-04-09T23:25:08.736Z,11.10
2023-04-09T23:27:35.156Z,11.08
2023-04-09T23:30:01.549Z,11.07
2023-04-09T23:32:27.956Z,11.04
2023-04-09T23:34:54.348Z,11.04
2023-04-09T23:37:20.802Z,11.02
2023-04-09T23:39:48.160Z,10.99
2023-04-09T23:42:14.573Z,10.97
2023-04-09T23:44:41.005Z,10.96
2023-04-09T23:47:07.564Z,10.95
2023-04-09T23:49:33.891Z,10.92
2023-04-09T23:52:00.317Z,10.91
2023-04-09T23:54:26.960Z,10.90
2023-04-09T23:56:53.342Z,10.89
2023-04-09T23:59:19.713Z,10.87
